Aérodrome :
LOGIN :

S'inscrire | Disclaimer

   EN    FR    IT 

 










Légende :    VFR   VFR Marginal   IFR   IFR Intensif   IFR Très Intensif
Visi : 
Plafond : 
>= 8 km
>= 3000ft
5 à 8 km
1000 à 3000 ft
1500m à 5 km
500 à 1000 ft
800 à 1500m
200 à 500 ft
< 800m
< 200 ft
Symboles :   Orages  Brouillard  Fortes neiges  Fortes précipitations  Vent > 20 kt
SIGMETs :   Divers  Orages  Givrage  Turbulence  Onde Orograph.  Cendres Volcan.






- Altitude de l'aérodrome : 63 ft
- Code IATA : BZM


EHWO - Woensdrecht Airbase

DERNIER METAR :
  • 302306Z AUTO 31010G20KT 240V360 9999 FEW015 BKN031 OVC036 09/07 Q1014 BLU

METARs EXPIRÉS :
  • 302255Z AUTO 29010KT 250V350 9999 FEW014 BKN016 BKN020 09/07 Q1014 WHT
  • 302241Z AUTO 29011KT 230V320 9999 BKN016 BKN062 09/07 Q1014 WHT
  • 302237Z AUTO 29011KT 240V320 9999 SCT017 SCT074 09/07 Q1014 WHT
  • 302226Z AUTO 28012KT 230V320 9999 FEW082 SCT089 09/08 Q1014 BLU
  • 302217Z AUTO 27010KT 240V300 9999 SCT014 BKN016 BKN019 09/08 Q1014 GRN
  • 302209Z AUTO 26010KT 240V300 9999 SCT016 BKN023 BKN026 09/09 Q1014 WHT
  • 302155Z AUTO 27011KT 230V310 9000 BR FEW006 FEW015CB OVC016 09/09 Q1014 WHT
  • 302148Z AUTO 27012KT 230V320 9000 -DZ FEW006 SCT008 BKN012 FEW015CB 09/09 Q1014 GRN
  • 302135Z AUTO 26012KT 230V290 6000 -RADZ FEW002 BKN004 BKN005 FEW015CB 09/09 Q1014 YLO
  • 302131Z AUTO 25011KT 230V290 4600 -RA SCT002 BKN003 BKN005 FEW015CB 09/09 Q1014 AMB
  • 302125Z AUTO 24010KT 210V270 5000 -RA SCT003 BKN004 BKN006 FEW015CB 09/08 Q1014 YLO
  • 302055Z AUTO 24011KT 3200 RADZ SCT003 BKN004 FEW015CB 08/08 Q1014 YLO
  • 302025Z AUTO 23011KT 200V260 2700 -RA BKN003 BKN004 FEW015CB 07/07 Q1015 RERA REDZ YLO
  • 302008Z AUTO 23010KT 200V270 2800 -RA BKN003 BKN004 FEW015CB 07/07 Q1015 YLO

Prévision TAF périmée.



MET'MAP, la Météo Aéronautique d'un coup d'oeil ! - Copyright ORBIFLY Décembre 2007 - Disclaimer

ORBIFLY MET'MAP TEAM :

Programmation & Développement : Alexandra Zaïnal
Sur une idée originale de : Baudouin d'Aumeries
Assistance à la programmation : Marc-Olivier Méhu
Soutien technique & logistique : Manuel Goepfert

Contact : metmap@orbifly.com




SOURCES & CREDITS :

   NOAA